Главная страница
METAR-TAF:

METAR-TAF

Аэропорты :

Пудун

Шанхай-Пудун, Китай

широта: 31-07N, долгота: 121-46E, высота над уровнем моря: 4 м

Текущие метеонаблюдения

Эта сводка был подготовлена 30 минут назад, в 20:00 UTC
Ветер 10 Узел от юго-восточный
Температура 22°C
Влажность 94%
Давление 1003 hPa
Видимость: 7000 м
небольшая облачность на высоте 800 фута

METAR: ZSPD 132000Z 13005MPS 7000 FEW008 22/21 Q1003 BECMG TL2110 BKN009

Время: 04:30 (20:30 UTC)

Прогноз

Эта сводка был подготовлена 5 часа и 24 минут назад, в 15:06 UTC
Прогноз действительный с 13-го 18 UTC до 14-го 24 UTC
Ветер 8 Узел от юго-восточный
Видимость: 6000 м
Рассеянная облачность на высоте 1000 фута

TAF: ZSPD 131506Z 1318/1424 14004MPS 6000 BKN010 TX31/1406Z TN23/1321Z TN23/1421Z

Метеонаблюдения и прогнозы для более 4000 аэропортов (сводки METAR и TAF).

Имеющиеся станции представлены на карте желтыми и красными точками.

Чтобы увидеть название станции, наведите на нее мышь.

Затем щелкните, чтобы увидеть метеонаблюдения и метеопрогнозы.

Управление картой: чтобы увеличить масштаб, щелкните зеленые кнопки с черным крестиком; чтобы уменьшить масштаб, щелкните зеленую кнопку с тире; для просмотра соседних карт щелкайте зеленые стрелки.


METAR-TAF: